SBPG/PNG METAR and TAF weather

Enter ICAO airport designator
Station Type Date Time Source
SBPG METAR 2021/09/24 19:00 UTC NOAA

SBPG 241900Z 19006KT CAVOK 25/13 Q1017


Station Type Date Time Source
SBPG Decoded METAR 2021/09/24 19:00 UTC NOAA

Paranagua, Brazil (SBPG) 25-31S 048-31W
Sep 24, 2021 - 03:00 PM EDT / 2021.09.24 1900 UTC
Wind: from the S (190 degrees) at 7 MPH (6 KT):0
Visibility: greater than 7 mile(s):0
Temperature: 77 F (25 C)
Dew Point: 55 F (13 C)
Relative Humidity: 47%
Pressure (altimeter): 30.03 in. Hg (1017 hPa)
ob: SBPG 241900Z 19006KT CAVOK 25/13 Q1017
cycle: 19

Station Type Date Time Source
SBPG TAF UTC NOAA

Error!

Example: see airport list